Time;durP1;ratioP1;P1;durP2;ratioP2;P2;SDS_P1;SDS_P2;PMS_P1;PMS_P2;Temp;Humidity;BMP_temperature;BMP_pressure;BME280_temperature;BME280_humidity;BME280_pressure;Samples;Min_cycle;Max_cycle;Signal;HPM_P1;HPM_P2
2022/04/07 00:01:08;;;;;;;20.90;15.50;;;19.80;99.90;;;;;;5011427;28;20077;-53
2022/04/07 00:03:34;;;;;;;19.20;14.95;;;19.80;99.90;;;;;;5011199;28;20026;-54
2022/04/07 00:06:01;;;;;;;21.73;15.73;;;19.80;99.90;;;;;;5009807;28;20026;-52
2022/04/07 00:08:27;;;;;;;20.10;15.38;;;19.80;99.90;;;;;;5011101;28;20105;-53
2022/04/07 00:10:53;;;;;;;21.38;15.80;;;19.80;99.90;;;;;;5011096;28;20030;-53
2022/04/07 00:13:19;;;;;;;22.38;15.75;;;19.80;99.90;;;;;;5011114;28;20405;-54
2022/04/07 00:15:45;;;;;;;23.10;16.40;;;19.70;99.90;;;;;;5011162;28;20033;-53
2022/04/07 00:18:12;;;;;;;23.23;16.38;;;19.70;99.90;;;;;;5011030;28;20022;-53
2022/04/07 00:20:37;;;;;;;21.58;14.95;;;19.80;99.90;;;;;;5013559;28;20497;-53
2022/04/07 00:23:03;;;;;;;24.08;15.75;;;19.80;99.90;;;;;;5014696;28;20029;-53
2022/04/07 00:25:30;;;;;;;20.85;15.95;;;19.70;99.90;;;;;;5014704;28;20094;-52
2022/04/07 00:27:56;;;;;;;22.97;17.17;;;19.70;99.90;;;;;;5014605;28;20022;-53
2022/04/07 00:30:23;;;;;;;22.23;15.73;;;19.80;99.90;;;;;;5014570;28;20317;-54
2022/04/07 00:32:50;;;;;;;21.83;15.95;;;19.70;99.90;;;;;;5014887;28;20022;-54
2022/04/07 00:35:17;;;;;;;24.92;17.73;;;19.80;99.90;;;;;;5029970;28;20108;-54
2022/04/07 00:37:43;;;;;;;22.73;16.50;;;19.70;99.90;;;;;;5014494;28;20811;-55
2022/04/07 00:40:10;;;;;;;21.90;16.02;;;19.70;99.90;;;;;;5014364;28;20541;-54
2022/04/07 00:42:50;;;;;;;24.02;17.00;;;19.70;99.90;;;;;;5014490;28;20104;-53
2022/04/07 00:45:17;;;;;;;22.52;16.98;;;19.70;99.90;;;;;;5029840;28;20054;-53
2022/04/07 00:47:44;;;;;;;22.83;16.52;;;19.70;99.90;;;;;;5014282;28;20064;-55
2022/04/07 00:50:11;;;;;;;24.35;16.33;;;19.70;99.90;;;;;;5029526;28;20045;-54
2022/04/07 00:52:43;;;;;;;21.40;15.32;;;19.70;99.90;;;;;;5013004;28;20048;-53
2022/04/07 00:55:14;;;;;;;20.33;15.02;;;19.70;99.90;;;;;;5014102;28;20022;-54
2022/04/07 00:57:41;;;;;;;23.42;15.73;;;19.70;99.90;;;;;;5014019;28;20036;-54
2022/04/07 01:00:09;;;;;;;23.87;15.63;;;19.70;99.90;;;;;;5014457;28;20564;-54
2022/04/07 01:02:35;;;;;;;23.35;16.85;;;19.70;99.90;;;;;;5014116;28;20049;-54
2022/04/07 01:05:05;;;;;;;22.17;16.13;;;19.70;99.90;;;;;;5013989;28;20026;-54
2022/04/07 01:07:36;;;;;;;21.52;15.63;;;19.70;99.90;;;;;;5014135;28;20101;-53
2022/04/07 01:10:02;;;;;;;19.63;14.75;;;19.70;99.90;;;;;;5014160;28;20022;-54
2022/04/07 01:12:28;;;;;;;22.23;16.10;;;19.70;99.90;;;;;;5013961;28;20022;-54
2022/04/07 01:15:00;;;;;;;22.45;15.02;;;19.70;99.90;;;;;;5013852;28;20445;-54
2022/04/07 01:17:27;;;;;;;19.35;14.80;;;19.60;99.90;;;;;;5013767;28;20109;-53
2022/04/07 01:19:53;;;;;;;20.55;14.82;;;19.70;99.90;;;;;;5013680;28;20036;-53
2022/04/07 01:22:20;;;;;;;21.05;14.98;;;19.60;99.90;;;;;;5013559;28;20048;-53
2022/04/07 01:24:47;;;;;;;21.90;15.75;;;19.60;99.90;;;;;;5012459;28;20065;-53
2022/04/07 01:27:14;;;;;;;21.07;15.00;;;19.60;99.90;;;;;;5013604;28;20033;-54
2022/04/07 01:29:40;;;;;;;20.23;15.18;;;19.60;99.90;;;;;;5013575;28;20719;-54
2022/04/07 01:32:09;;;;;;;21.23;14.93;;;19.60;99.90;;;;;;5013441;28;20037;-53
2022/04/07 01:34:35;;;;;;;22.00;14.50;;;19.60;99.90;;;;;;5013675;28;20045;-53
2022/04/07 01:37:02;;;;;;;20.75;15.18;;;19.60;99.90;;;;;;5013690;28;20045;-54
2022/04/07 01:39:28;;;;;;;19.58;15.00;;;19.60;99.90;;;;;;5013492;28;20166;-53
2022/04/07 01:41:54;;;;;;;19.42;14.40;;;19.60;99.90;;;;;;5013121;28;20030;-54
2022/04/07 01:44:22;;;;;;;17.58;13.63;;;19.60;99.90;;;;;;5013256;28;20026;-54
2022/04/07 01:46:48;;;;;;;18.85;13.63;;;19.60;99.90;;;;;;5028271;28;20025;-55
2022/04/07 01:49:15;;;;;;;21.42;13.48;;;19.60;99.90;;;;;;5013138;28;20037;-54
2022/04/07 01:51:42;;;;;;;22.25;14.88;;;19.50;99.90;;;;;;5013179;28;20153;-54
2022/04/07 01:54:11;;;;;;;20.03;14.30;;;19.60;99.90;;;;;;5012021;28;20026;-54
2022/04/07 01:56:42;;;;;;;20.88;13.98;;;19.60;99.90;;;;;;5013231;28;20052;-54
2022/04/07 01:59:08;;;;;;;18.98;13.75;;;19.50;99.90;;;;;;5012943;28;20034;-52
2022/04/07 02:01:35;;;;;;;19.38;13.60;;;19.50;99.90;;;;;;5043325;22;20463;-62
2022/04/07 02:04:01;;;;;;;20.17;13.98;;;19.50;99.90;;;;;;5032795;28;20033;-64
2022/04/07 02:06:27;;;;;;;18.85;13.48;;;19.50;99.90;;;;;;5032905;28;20368;-64
2022/04/07 02:08:54;;;;;;;21.30;14.05;;;19.60;99.90;;;;;;5032599;28;20025;-64
2022/04/07 02:11:20;;;;;;;18.38;13.45;;;19.50;99.90;;;;;;5032615;28;20031;-64
2022/04/07 02:13:46;;;;;;;17.05;12.40;;;19.50;99.90;;;;;;5032628;28;20043;-62
2022/04/07 02:16:13;;;;;;;20.55;13.57;;;19.50;99.90;;;;;;5032635;28;20473;-62
2022/04/07 02:18:39;;;;;;;18.48;13.13;;;19.50;99.90;;;;;;5031484;28;20079;-62
2022/04/07 02:21:05;;;;;;;16.77;12.30;;;19.50;99.90;;;;;;5032299;28;20052;-62
2022/04/07 02:23:34;;;;;;;17.17;13.20;;;19.50;99.90;;;;;;5031225;28;20404;-63
2022/04/07 02:26:00;;;;;;;18.23;13.27;;;19.50;99.90;;;;;;5032333;28;20096;-62
2022/04/07 02:28:26;;;;;;;18.05;12.07;;;19.50;99.90;;;;;;5030943;28;20444;-62
2022/04/07 02:30:51;;;;;;;16.35;12.73;;;19.50;99.90;;;;;;5032193;28;20101;-63
2022/04/07 02:33:17;;;;;;;17.95;13.55;;;19.50;99.90;;;;;;5032126;28;20036;-62
2022/04/07 02:35:43;;;;;;;17.17;11.90;;;19.50;99.90;;;;;;5032281;28;20400;-63
2022/04/07 02:38:09;;;;;;;18.02;13.15;;;19.50;99.90;;;;;;5032332;28;20500;-65
2022/04/07 02:40:34;;;;;;;16.33;11.90;;;19.50;99.90;;;;;;5031851;28;20469;-65
2022/04/07 02:43:00;;;;;;;16.75;12.23;;;19.50;99.90;;;;;;5031582;28;20443;-64
2022/04/07 02:45:26;;;;;;;16.40;11.63;;;19.50;99.90;;;;;;5031972;28;20093;-64
2022/04/07 02:47:52;;;;;;;18.27;12.93;;;19.40;99.90;;;;;;5031889;28;20125;-63
2022/04/07 02:50:17;;;;;;;15.65;11.95;;;19.40;99.90;;;;;;5031687;28;20026;-64
2022/04/07 02:52:43;;;;;;;15.60;11.68;;;19.50;99.90;;;;;;5031874;28;20033;-64
2022/04/07 02:55:09;;;;;;;17.25;12.40;;;19.40;99.90;;;;;;5031840;28;20105;-63
2022/04/07 02:57:36;;;;;;;15.55;11.93;;;19.40;99.90;;;;;;5031465;28;20137;-64
2022/04/07 03:00:04;;;;;;;16.52;11.50;;;19.40;99.90;;;;;;5043460;23;20513;-53
2022/04/07 03:02:30;;;;;;;15.77;11.30;;;19.40;99.90;;;;;;5031620;28;20044;-53
2022/04/07 03:04:56;;;;;;;17.08;12.52;;;19.40;99.90;;;;;;5031457;28;20026;-53
2022/04/07 03:07:21;;;;;;;17.08;12.13;;;19.40;99.90;;;;;;5031447;28;20044;-54
2022/04/07 03:09:47;;;;;;;15.18;10.93;;;19.40;99.90;;;;;;5031478;28;20488;-54
2022/04/07 03:12:13;;;;;;;14.98;11.50;;;19.40;99.90;;;;;;5031492;28;20025;-55
2022/04/07 03:14:40;;;;;;;17.45;12.35;;;19.40;99.90;;;;;;5031681;28;20487;-55
2022/04/07 03:17:06;;;;;;;15.52;11.50;;;19.40;99.90;;;;;;5031357;28;20112;-56
2022/04/07 03:19:32;;;;;;;14.82;11.43;;;19.40;99.90;;;;;;5031452;28;20113;-57
2022/04/07 03:21:58;;;;;;;17.80;12.88;;;19.40;99.90;;;;;;5029862;28;20455;-55
2022/04/07 03:24:24;;;;;;;17.23;12.45;;;19.40;99.90;;;;;;5031203;28;20100;-55
2022/04/07 03:26:51;;;;;;;14.50;11.48;;;19.40;99.90;;;;;;5031227;28;20049;-54
2022/04/07 03:29:19;;;;;;;18.90;12.35;;;19.40;99.90;;;;;;5031151;28;20103;-55
2022/04/07 03:31:45;;;;;;;18.08;12.05;;;19.30;99.90;;;;;;5031029;28;20025;-55
2022/04/07 03:34:11;;;;;;;19.55;12.65;;;19.30;99.90;;;;;;5031380;28;20029;-55
2022/04/07 03:36:37;;;;;;;18.58;12.75;;;19.30;99.90;;;;;;5031064;28;20021;-54
2022/04/07 03:39:03;;;;;;;18.00;12.65;;;19.30;99.90;;;;;;5031010;28;20052;-52
2022/04/07 03:41:29;;;;;;;18.67;12.70;;;19.30;99.90;;;;;;5031017;28;20038;-52
2022/04/07 03:43:56;;;;;;;17.55;12.65;;;19.30;99.90;;;;;;5031073;28;20049;-52
2022/04/07 03:46:22;;;;;;;18.60;12.65;;;19.30;99.90;;;;;;5031131;28;20033;-52
2022/04/07 03:48:51;;;;;;;18.15;12.70;;;19.30;99.90;;;;;;5031024;28;20045;-54
2022/04/07 03:51:17;;;;;;;17.92;12.10;;;19.30;99.90;;;;;;5031140;28;20535;-54
2022/04/07 03:53:44;;;;;;;17.65;12.05;;;19.30;99.90;;;;;;5031315;28;20025;-54
2022/04/07 03:56:10;;;;;;;17.10;12.55;;;19.30;99.90;;;;;;5034635;28;20022;-54
2022/04/07 03:58:37;;;;;;;18.23;12.52;;;19.30;99.90;;;;;;5034893;28;20022;-55
2022/04/07 04:01:04;;;;;;;18.88;12.30;;;19.30;99.90;;;;;;5047258;22;20045;-66
2022/04/07 04:03:29;;;;;;;18.70;12.65;;;19.30;99.90;;;;;;5035081;28;20579;-67
2022/04/07 04:05:55;;;;;;;18.85;13.07;;;19.30;99.90;;;;;;5034999;28;20044;-67
2022/04/07 04:08:21;;;;;;;17.80;12.57;;;19.30;99.90;;;;;;5035017;28;20489;-68
2022/04/07 04:10:47;;;;;;;18.23;13.00;;;19.30;99.90;;;;;;5034895;28;20100;-65
2022/04/07 04:13:13;;;;;;;17.02;12.20;;;19.30;99.90;;;;;;5034920;28;20030;-65
2022/04/07 04:15:38;;;;;;;17.77;12.07;;;19.30;99.90;;;;;;5034669;28;20030;-64
2022/04/07 04:18:04;;;;;;;17.73;11.60;;;19.30;99.90;;;;;;5034796;28;20018;-66
2022/04/07 04:20:30;;;;;;;18.13;12.35;;;19.30;99.90;;;;;;5034683;28;20036;-63
2022/04/07 04:22:56;;;;;;;18.02;12.82;;;19.30;99.90;;;;;;5034785;28;20591;-63
2022/04/07 04:25:22;;;;;;;17.38;12.15;;;19.30;99.90;;;;;;5034750;28;20104;-64
2022/04/07 04:27:49;;;;;;;18.63;11.70;;;19.30;99.90;;;;;;5034512;28;20024;-64
2022/04/07 04:30:15;;;;;;;17.67;12.85;;;19.30;99.90;;;;;;5034742;28;20119;-64
2022/04/07 04:32:43;;;;;;;17.02;11.93;;;19.30;99.90;;;;;;5034498;28;20028;-66
2022/04/07 04:35:10;;;;;;;18.02;12.18;;;19.30;99.90;;;;;;5034414;28;20119;-66
2022/04/07 04:37:36;;;;;;;19.07;12.30;;;19.30;99.90;;;;;;5034440;28;20162;-62
2022/04/07 04:40:03;;;;;;;19.58;12.55;;;19.20;99.90;;;;;;5034325;28;20263;-62
2022/04/07 04:42:29;;;;;;;17.67;12.45;;;19.20;99.90;;;;;;5034255;28;20113;-65
2022/04/07 04:44:54;;;;;;;17.23;12.55;;;19.30;99.90;;;;;;5032889;28;20120;-67
2022/04/07 04:47:20;;;;;;;19.75;13.27;;;19.30;99.90;;;;;;5034113;28;20025;-68
2022/04/07 04:49:46;;;;;;;17.48;12.32;;;19.30;99.90;;;;;;5034060;28;20022;-67
2022/04/07 04:52:12;;;;;;;19.98;11.90;;;19.30;99.90;;;;;;5034262;28;20075;-66
2022/04/07 04:54:38;;;;;;;19.33;12.90;;;19.20;99.90;;;;;;5033948;28;20025;-67
2022/04/07 04:57:05;;;;;;;16.63;12.38;;;19.20;99.90;;;;;;5033860;28;20064;-66
2022/04/07 04:59:30;;;;;;;19.87;12.50;;;19.20;99.90;;;;;;5033894;28;20025;-66
2022/04/07 05:01:56;;;;;;;18.77;12.63;;;19.20;99.90;;;;;;5033615;28;20495;-68
2022/04/07 05:04:22;;;;;;;16.90;11.98;;;19.20;99.90;;;;;;5033884;28;20049;-68
2022/04/07 05:06:48;;;;;;;17.80;12.68;;;19.20;99.90;;;;;;5033494;28;20053;-67
2022/04/07 05:09:13;;;;;;;18.67;12.70;;;19.20;99.90;;;;;;5033751;28;20022;-67
2022/04/07 05:11:39;;;;;;;18.80;12.50;;;19.20;99.90;;;;;;5032430;28;20492;-68
2022/04/07 05:14:05;;;;;;;19.10;13.23;;;19.20;99.90;;;;;;5033739;28;20377;-68
2022/04/07 05:16:31;;;;;;;17.77;12.02;;;19.20;99.90;;;;;;5033681;28;20025;-68
2022/04/07 05:18:56;;;;;;;19.27;12.45;;;19.20;99.90;;;;;;5032213;28;20021;-67
2022/04/07 05:21:22;;;;;;;17.55;12.73;;;19.20;99.90;;;;;;5033436;28;20040;-68
2022/04/07 05:23:48;;;;;;;18.35;11.63;;;19.20;99.90;;;;;;5032324;28;20021;-67
2022/04/07 05:26:14;;;;;;;20.65;13.50;;;19.20;99.90;;;;;;5033465;28;20473;-68
2022/04/07 05:28:43;;;;;;;19.98;13.07;;;19.20;99.90;;;;;;5033320;28;20142;-68
2022/04/07 05:31:09;;;;;;;19.88;13.55;;;19.20;99.90;;;;;;5033371;28;20035;-69
2022/04/07 05:33:35;;;;;;;16.98;12.18;;;19.20;99.90;;;;;;5033293;28;20203;-68
2022/04/07 05:36:01;;;;;;;19.65;12.43;;;19.20;99.90;;;;;;5033240;28;20029;-66
2022/04/07 05:38:27;;;;;;;22.55;13.98;;;19.20;99.90;;;;;;5033128;28;20026;-66
2022/04/07 05:40:53;;;;;;;17.55;12.25;;;19.20;99.90;;;;;;5033186;28;20030;-67
2022/04/07 05:43:18;;;;;;;17.83;11.95;;;19.20;99.90;;;;;;5031879;28;20022;-67
2022/04/07 05:45:45;;;;;;;17.30;12.30;;;19.20;99.90;;;;;;5032903;28;20032;-68
2022/04/07 05:48:12;;;;;;;18.33;12.43;;;19.20;99.90;;;;;;5033055;28;20959;-68
2022/04/07 05:50:38;;;;;;;20.98;13.00;;;19.20;99.90;;;;;;5031850;28;20082;-68
2022/04/07 05:53:06;;;;;;;17.75;12.07;;;19.20;99.90;;;;;;5032765;28;20396;-69
2022/04/07 05:55:32;;;;;;;19.02;11.93;;;19.20;99.90;;;;;;5033064;28;20017;-67
2022/04/07 05:58:02;;;;;;;17.77;11.90;;;19.20;99.90;;;;;;5032934;28;20026;-68
2022/04/07 06:00:28;;;;;;;18.45;12.13;;;19.20;99.90;;;;;;5032610;28;20397;-67
2022/04/07 06:02:54;;;;;;;16.42;11.50;;;19.20;99.90;;;;;;5032582;28;20029;-68
2022/04/07 06:05:20;;;;;;;18.27;12.40;;;19.20;99.90;;;;;;5031597;28;20036;-68
2022/04/07 06:07:46;;;;;;;17.38;12.60;;;19.20;99.90;;;;;;5032524;28;20025;-68
2022/04/07 06:10:13;;;;;;;20.30;12.75;;;19.10;99.90;;;;;;5032608;28;20084;-67
2022/04/07 06:12:42;;;;;;;18.15;12.15;;;19.10;99.90;;;;;;5032523;28;20021;-67
2022/04/07 06:15:11;;;;;;;18.50;12.32;;;19.20;99.90;;;;;;5031302;28;20029;-67
2022/04/07 06:17:41;;;;;;;18.88;12.80;;;19.10;99.90;;;;;;5031666;28;20033;-67
2022/04/07 06:20:10;;;;;;;17.58;12.07;;;19.10;99.90;;;;;;5032344;28;20024;-66
2022/04/07 06:22:36;;;;;;;16.45;10.93;;;19.10;99.90;;;;;;5032284;28;20029;-66
2022/04/07 06:25:03;;;;;;;15.52;11.23;;;19.10;99.90;;;;;;5032366;28;20022;-66
2022/04/07 06:27:43;;;;;;;21.00;11.70;;;19.20;99.90;;;;;;5032384;28;20268;-66
2022/04/07 06:30:14;;;;;;;17.45;11.25;;;19.10;99.90;;;;;;5032306;28;20095;-66
2022/04/07 06:32:41;;;;;;;20.10;11.25;;;19.10;99.90;;;;;;5032051;28;20026;-66
2022/04/07 06:35:08;;;;;;;13.45;9.95;;;19.10;99.90;;;;;;5031765;28;20033;-65
2022/04/07 06:37:49;;;;;;;15.07;10.20;;;19.20;99.90;;;;;;5031776;28;20025;-65
2022/04/07 06:40:22;;;;;;;14.27;9.93;;;19.20;99.90;;;;;;5031655;28;20034;-66
2022/04/07 06:42:49;;;;;;;15.77;11.73;;;19.10;99.90;;;;;;5030458;28;20035;-66
2022/04/07 06:45:15;;;;;;;15.57;10.52;;;19.10;99.90;;;;;;5031641;28;20025;-65
2022/04/07 06:47:41;;;;;;;15.07;10.13;;;19.10;99.90;;;;;;5031518;28;20041;-64
2022/04/07 06:50:11;;;;;;;17.50;10.88;;;19.10;99.90;;;;;;5031503;28;20040;-65
2022/04/07 06:52:37;;;;;;;14.63;9.95;;;19.20;99.90;;;;;;5031673;28;20030;-65
2022/04/07 06:55:04;;;;;;;16.75;11.18;;;19.20;99.90;;;;;;5031670;28;20029;-65
2022/04/07 06:57:30;;;;;;;16.40;9.80;;;19.20;99.90;;;;;;5032009;28;20029;-66
2022/04/07 06:59:56;;;;;;;14.10;9.23;;;19.20;99.90;;;;;;5031441;28;20037;-66
2022/04/07 07:02:23;;;;;;;15.48;10.05;;;19.10;99.90;;;;;;5031763;28;20029;-67
2022/04/07 07:04:48;;;;;;;14.50;9.60;;;19.20;99.90;;;;;;5031587;28;20136;-66
2022/04/07 07:07:16;;;;;;;15.18;10.77;;;19.20;99.90;;;;;;5031450;28;20109;-65
2022/04/07 07:09:42;;;;;;;14.77;9.27;;;19.10;99.90;;;;;;5031324;28;20388;-67
2022/04/07 07:12:08;;;;;;;14.65;9.18;;;19.20;99.90;;;;;;5029914;28;20033;-65
2022/04/07 07:14:33;;;;;;;14.85;10.15;;;19.20;99.90;;;;;;5031141;28;20505;-66
2022/04/07 07:16:59;;;;;;;14.88;10.05;;;19.20;99.90;;;;;;5031177;28;20030;-67
2022/04/07 07:19:28;;;;;;;14.15;9.40;;;19.20;99.90;;;;;;5031436;28;20033;-67
2022/04/07 07:21:54;;;;;;;13.65;9.07;;;19.20;99.90;;;;;;5031462;28;20128;-66
2022/04/07 07:24:20;;;;;;;15.30;9.02;;;19.20;99.90;;;;;;5031179;28;20110;-66
2022/04/07 07:26:46;;;;;;;13.63;8.57;;;19.20;99.90;;;;;;5031189;28;20637;-66
2022/04/07 07:29:12;;;;;;;14.50;8.00;;;19.20;99.90;;;;;;5031132;28;20087;-65
2022/04/07 07:31:38;;;;;;;15.10;9.35;;;19.20;99.90;;;;;;5031152;28;20057;-65
2022/04/07 07:34:03;;;;;;;13.23;8.75;;;19.20;99.90;;;;;;5031199;28;20029;-62
2022/04/07 07:36:30;;;;;;;12.20;8.20;;;19.20;99.90;;;;;;5031077;28;20037;-68
2022/04/07 07:38:57;;;;;;;14.60;8.55;;;19.20;99.90;;;;;;5031252;28;20117;-66
2022/04/07 07:41:23;;;;;;;13.38;9.00;;;19.20;99.90;;;;;;5031339;28;20372;-66
2022/04/07 07:43:49;;;;;;;12.35;8.13;;;19.20;99.90;;;;;;5029826;28;20476;-65
2022/04/07 07:46:16;;;;;;;13.13;7.78;;;19.20;99.90;;;;;;5031141;28;20504;-66
2022/04/07 07:48:42;;;;;;;12.33;8.43;;;19.20;99.90;;;;;;5031070;28;20053;-67
2022/04/07 07:51:08;;;;;;;13.95;8.63;;;19.30;99.90;;;;;;5030868;28;20627;-65
2022/04/07 07:53:34;;;;;;;13.30;8.07;;;19.30;99.90;;;;;;5031046;28;20021;-66
2022/04/07 07:56:00;;;;;;;11.50;7.63;;;19.20;99.90;;;;;;5031017;28;20032;-66
2022/04/07 07:58:26;;;;;;;13.63;7.45;;;19.20;99.90;;;;;;5030997;28;20033;-65
2022/04/07 08:00:52;;;;;;;11.43;7.78;;;19.30;99.90;;;;;;5030906;28;20124;-65
2022/04/07 08:03:18;;;;;;;12.23;8.52;;;19.30;99.90;;;;;;5030825;28;20029;-65
2022/04/07 08:05:44;;;;;;;11.27;8.23;;;19.30;99.90;;;;;;5030742;28;20037;-64
2022/04/07 08:08:11;;;;;;;13.80;8.68;;;19.30;99.90;;;;;;5030848;28;20060;-64
2022/04/07 08:10:37;;;;;;;14.52;8.90;;;19.30;99.90;;;;;;5030778;28;20022;-65
2022/04/07 08:13:03;;;;;;;11.40;7.15;;;19.40;99.90;;;;;;5030858;28;20030;-66
2022/04/07 08:15:30;;;;;;;12.35;8.02;;;19.40;99.90;;;;;;5030596;28;20063;-67
2022/04/07 08:17:56;;;;;;;12.77;8.80;;;19.40;99.90;;;;;;5029373;28;20032;-65
2022/04/07 08:20:22;;;;;;;11.85;7.95;;;19.40;99.90;;;;;;5030621;28;20025;-64
2022/04/07 08:22:48;;;;;;;13.23;8.25;;;19.40;99.90;;;;;;5030609;28;20029;-63
2022/04/07 08:25:14;;;;;;;13.48;9.02;;;19.40;99.90;;;;;;5030566;28;20033;-64
2022/04/07 08:27:40;;;;;;;12.02;8.25;;;19.40;99.90;;;;;;5030694;28;20064;-65
2022/04/07 08:30:07;;;;;;;11.55;7.60;;;19.50;99.90;;;;;;5030477;28;20493;-65
2022/04/07 08:32:33;;;;;;;12.32;7.63;;;19.40;99.90;;;;;;5030553;28;20061;-65
2022/04/07 08:35:00;;;;;;;11.57;7.60;;;19.40;99.90;;;;;;5031450;28;20045;-63
2022/04/07 08:37:26;;;;;;;14.05;8.55;;;19.40;99.90;;;;;;5030978;28;20542;-65
2022/04/07 08:39:52;;;;;;;12.50;8.15;;;19.40;99.90;;;;;;5030454;28;20524;-65
2022/04/07 08:42:26;;;;;;;11.05;7.93;;;19.40;99.90;;;;;;5033819;28;20113;-65
2022/04/07 08:44:52;;;;;;;11.63;7.75;;;19.40;99.90;;;;;;5034034;28;20022;-68
2022/04/07 08:47:20;;;;;;;11.82;8.15;;;19.40;99.90;;;;;;5033738;28;20078;-65
2022/04/07 08:49:48;;;;;;;12.77;8.00;;;19.50;99.90;;;;;;5032545;28;20388;-66
2022/04/07 08:52:15;;;;;;;12.65;7.95;;;19.50;99.90;;;;;;5032742;28;20028;-65
2022/04/07 08:54:44;;;;;;;11.00;7.60;;;19.50;99.90;;;;;;5033921;28;20416;-65
2022/04/07 08:57:10;;;;;;;11.55;8.48;;;19.50;99.90;;;;;;5033810;28;20488;-65
2022/04/07 08:59:36;;;;;;;11.43;7.78;;;19.50;99.90;;;;;;5033576;28;20026;-64
2022/04/07 09:02:05;;;;;;;11.38;8.10;;;19.50;99.90;;;;;;5033501;28;20067;-64
2022/04/07 09:04:37;;;;;;;11.68;7.25;;;19.50;99.90;;;;;;5033841;28;20036;-64
2022/04/07 09:07:03;;;;;;;15.00;7.80;;;19.60;99.90;;;;;;5033545;28;20071;-64
2022/04/07 09:09:31;;;;;;;10.20;7.63;;;19.50;99.90;;;;;;5033653;28;20044;-65
2022/04/07 09:11:57;;;;;;;11.68;7.20;;;19.50;99.90;;;;;;5033565;28;20026;-65
2022/04/07 09:14:24;;;;;;;10.48;6.90;;;19.50;99.90;;;;;;5032287;28;20026;-66
2022/04/07 09:16:55;;;;;;;13.30;7.70;;;19.50;99.90;;;;;;5033456;28;20021;-66
2022/04/07 09:19:22;;;;;;;11.30;6.88;;;19.60;99.90;;;;;;5033464;28;20030;-64
2022/04/07 09:22:03;;;;;;;11.50;7.73;;;19.60;99.90;;;;;;5033348;28;20030;-64
2022/04/07 09:24:29;;;;;;;11.07;7.28;;;19.60;99.90;;;;;;5033408;28;20465;-64
2022/04/07 09:26:54;;;;;;;12.80;7.43;;;19.60;99.90;;;;;;5031916;28;20072;-64
2022/04/07 09:29:20;;;;;;;8.52;6.90;;;19.60;99.90;;;;;;5033353;28;20094;-62
2022/04/07 09:31:53;;;;;;;13.30;7.03;;;19.60;99.90;;;;;;5033101;28;20385;-65
2022/04/07 09:34:32;;;;;;;12.32;7.50;;;19.60;99.90;;;;;;5032985;28;20108;-62
2022/04/07 09:37:08;;;;;;;9.73;6.90;;;19.70;99.90;;;;;;5033050;28;20025;-67
2022/04/07 09:39:36;;;;;;;11.38;6.65;;;19.70;99.90;;;;;;5033093;28;20055;-66
2022/04/07 09:42:23;;;;;;;10.52;7.32;;;19.70;99.90;;;;;;5032737;28;20125;-65
2022/04/07 09:44:52;;;;;;;8.27;6.03;;;19.70;99.90;;;;;;5032827;28;20018;-64
2022/04/07 09:47:19;;;;;;;8.65;6.40;;;19.70;99.90;;;;;;5032774;28;20416;-66
2022/04/07 09:49:46;;;;;;;11.40;7.10;;;19.80;99.90;;;;;;5032811;28;20005;-66
2022/04/07 09:52:13;;;;;;;8.43;6.35;;;19.80;99.90;;;;;;5032858;28;20033;-66
2022/04/07 09:54:47;;;;;;;10.77;6.63;;;19.80;99.90;;;;;;5032628;28;20105;-66
2022/04/07 09:57:15;;;;;;;10.05;6.78;;;19.80;99.90;;;;;;5032631;28;20033;-67
2022/04/07 09:59:42;;;;;;;8.10;5.90;;;19.80;99.90;;;;;;5032506;28;20357;-68
2022/04/07 10:02:08;;;;;;;10.77;6.28;;;19.90;99.90;;;;;;5032600;28;20041;-67
2022/04/07 10:04:35;;;;;;;10.27;6.20;;;19.90;99.90;;;;;;5031472;28;20030;-66
2022/04/07 10:07:04;;;;;;;;;;;19.90;99.90;;;;;;5033037;28;20028;-67
2022/04/07 10:09:31;;;;;;;7.88;6.20;;;20.00;99.90;;;;;;5032549;28;19912;-68
2022/04/07 10:11:59;;;;;;;9.07;6.15;;;20.00;99.90;;;;;;5032253;28;20025;-67
2022/04/07 10:14:26;;;;;;;8.40;5.60;;;20.00;99.90;;;;;;5032444;28;20044;-68
2022/04/07 10:16:52;;;;;;;9.55;6.40;;;20.00;99.90;;;;;;5032494;28;20547;-70
2022/04/07 10:19:46;;;;;;;12.68;7.28;;;20.10;99.90;;;;;;5032208;28;20033;-68
2022/04/07 10:22:33;;;;;;;9.32;6.10;;;20.10;99.90;;;;;;5023395;28;20077;-68
2022/04/07 10:25:03;;;;;;;9.40;6.60;;;20.20;99.90;;;;;;5030639;28;20029;-68
2022/04/07 10:27:30;;;;;;;9.10;6.78;;;20.20;99.90;;;;;;5031844;28;20036;-68
2022/04/07 10:30:11;;;;;;;9.73;6.78;;;20.30;99.90;;;;;;5031912;28;20053;-70
2022/04/07 10:32:38;;;;;;;9.90;6.90;;;20.30;99.90;;;;;;5031802;28;20044;-69
2022/04/07 10:35:05;;;;;;;10.52;7.00;;;20.30;99.90;;;;;;5032173;28;20022;-66
2022/04/07 10:37:41;;;;;;;10.75;6.28;;;20.40;99.90;;;;;;5032009;28;20036;-64
2022/04/07 10:40:40;;;;;;;10.77;7.20;;;20.40;99.90;;;;;;5032053;28;20017;-65
2022/04/07 10:43:18;;;;;;;10.38;6.88;;;20.40;99.90;;;;;;5031958;28;20113;-64
2022/04/07 10:45:46;;;;;;;8.30;6.47;;;20.50;99.90;;;;;;5031910;28;20055;-65
2022/04/07 10:48:31;;;;;;;;;;;20.50;99.90;;;;;;5032257;28;20491;-65
2022/04/07 10:50:57;;;;;;;8.90;7.05;;;20.50;99.90;;;;;;5031542;28;19913;-65
2022/04/07 10:53:32;;;;;;;8.35;6.15;;;20.60;99.90;;;;;;5031685;28;20425;-65
2022/04/07 10:56:20;;;;;;;8.65;6.20;;;20.60;99.90;;;;;;5030249;28;20033;-66
2022/04/07 10:58:48;;;;;;;9.32;6.43;;;20.60;99.90;;;;;;5030289;28;20144;-65
2022/04/07 11:01:31;;;;;;;9.27;6.57;;;20.60;99.90;;;;;;5031289;28;20037;-66
2022/04/07 11:04:21;;;;;;;8.60;6.45;;;20.60;99.90;;;;;;5031126;28;20049;-66
2022/04/07 11:07:11;;;;;;;9.10;5.95;;;20.70;99.90;;;;;;5031484;28;20025;-67
2022/04/07 11:09:55;;;;;;;9.77;6.45;;;20.70;99.90;;;;;;5031788;28;20036;-66
2022/04/07 11:12:34;;;;;;;9.20;6.20;;;20.70;99.90;;;;;;5031444;28;20025;-65
2022/04/07 11:15:02;;;;;;;8.60;6.35;;;20.80;99.90;;;;;;5031438;28;20095;-67
2022/04/07 11:17:33;;;;;;;10.00;6.80;;;20.80;99.90;;;;;;5031142;28;20328;-66
2022/04/07 11:20:21;;;;;;;9.80;6.78;;;20.80;99.90;;;;;;5031312;28;20452;-66
2022/04/07 11:23:09;;;;;;;8.98;6.25;;;20.80;99.90;;;;;;5031295;28;20041;-66
2022/04/07 11:25:38;;;;;;;10.45;6.88;;;20.80;99.90;;;;;;5031483;28;20117;-66
2022/04/07 11:28:17;;;;;;;9.10;6.60;;;20.90;99.90;;;;;;5031352;28;20025;-65
2022/04/07 11:30:52;;;;;;;11.23;6.90;;;20.90;99.90;;;;;;5031123;28;20041;-65
2022/04/07 11:33:25;;;;;;;9.57;6.15;;;20.90;99.90;;;;;;5030913;28;20048;-66
2022/04/07 11:36:00;;;;;;;7.85;5.88;;;20.90;99.90;;;;;;5030321;28;20056;-65
2022/04/07 11:38:27;;;;;;;8.25;5.97;;;20.90;99.90;;;;;;5030423;28;20407;-66
2022/04/07 11:41:02;;;;;;;8.83;6.00;;;21.00;99.90;;;;;;5031079;28;20164;-64
2022/04/07 11:43:28;;;;;;;10.38;6.13;;;21.00;99.90;;;;;;5031161;28;20266;-68
2022/04/07 11:45:58;;;;;;;9.02;6.38;;;21.00;99.90;;;;;;5031196;28;20030;-67
2022/04/07 11:48:30;;;;;;;9.93;6.10;;;21.00;99.90;;;;;;5031093;28;20481;-67
2022/04/07 11:51:00;;;;;;;7.97;5.82;;;21.00;99.90;;;;;;5031110;28;20060;-67
2022/04/07 11:53:30;;;;;;;11.13;6.63;;;21.00;99.90;;;;;;5031132;28;20520;-67
2022/04/07 11:56:11;;;;;;;9.57;6.28;;;21.10;99.90;;;;;;5030942;28;20616;-65
2022/04/07 11:58:37;;;;;;;8.93;5.93;;;21.10;99.90;;;;;;5029721;28;20067;-65
2022/04/07 12:01:07;;;;;;;7.82;6.20;;;21.00;99.90;;;;;;5030657;28;20509;-66
2022/04/07 12:03:33;;;;;;;7.65;5.65;;;21.10;99.90;;;;;;5030814;28;20377;-65
2022/04/07 12:06:00;;;;;;;8.02;5.85;;;21.10;99.90;;;;;;5030884;28;20033;-66
2022/04/07 12:08:26;;;;;;;8.55;6.53;;;21.10;99.90;;;;;;5030941;28;20033;-64
2022/04/07 12:10:52;;;;;;;8.50;5.68;;;21.10;99.90;;;;;;5030911;28;20048;-66
2022/04/07 12:13:18;;;;;;;7.13;5.18;;;21.10;99.90;;;;;;5030826;28;20037;-66
2022/04/07 12:15:44;;;;;;;8.07;5.90;;;21.20;99.90;;;;;;5031863;28;20018;-66
2022/04/07 12:18:10;;;;;;;7.88;5.53;;;21.20;99.90;;;;;;5034831;28;20026;-66
2022/04/07 12:20:37;;;;;;;8.95;6.00;;;21.10;99.90;;;;;;5034415;28;20037;-66
2022/04/07 12:23:13;;;;;;;7.90;6.38;;;21.10;99.90;;;;;;5034557;28;20036;-66
2022/04/07 12:25:40;;;;;;;8.27;6.22;;;21.20;99.90;;;;;;5034769;28;20025;-65
2022/04/07 12:28:10;;;;;;;7.32;6.07;;;21.20;99.90;;;;;;5034606;28;20026;-65
2022/04/07 12:30:46;;;;;;;10.27;7.05;;;21.20;99.90;;;;;;5034721;28;20038;-66
2022/04/07 12:33:31;;;;;;;7.55;5.75;;;21.20;99.90;;;;;;5034481;28;20096;-67
2022/04/07 12:35:57;;;;;;;7.90;5.68;;;21.20;99.90;;;;;;5034127;28;20032;-66
2022/04/07 12:38:23;;;;;;;6.68;5.32;;;21.20;99.90;;;;;;5034221;28;20030;-65